Time;durP1;ratioP1;P1;durP2;ratioP2;P2;SDS_P1;SDS_P2;PMS_P1;PMS_P2;Temp;Humidity;BMP_temperature;BMP_pressure;BME280_temperature;BME280_humidity;BME280_pressure;Samples;Min_cycle;Max_cycle;Signal;HPM_P1;HPM_P2
2022/12/27 00:00:51;;;;;;;2.63;1.57;;;7.80;1.00;;;;;;4992056;28;20812;-52
2022/12/27 00:03:16;;;;;;;6.57;1.33;;;7.80;1.00;;;;;;4991906;28;20862;-54
2022/12/27 00:05:43;;;;;;;3.90;1.80;;;7.90;1.00;;;;;;4985939;28;20444;-52
2022/12/27 00:08:09;;;;;;;2.87;1.00;;;8.00;1.00;;;;;;4977311;28;20521;-54
2022/12/27 00:10:35;;;;;;;4.03;1.20;;;7.80;1.00;;;;;;4987228;28;20440;-55
2022/12/27 00:13:00;;;;;;;2.73;1.10;;;7.60;1.00;;;;;;4982746;28;20280;-50
2022/12/27 00:15:26;;;;;;;4.53;1.53;;;8.10;1.00;;;;;;4980994;28;20288;-54
2022/12/27 00:17:52;;;;;;;5.80;1.33;;;7.80;1.00;;;;;;4985410;28;20228;-51
2022/12/27 00:20:17;;;;;;;5.10;1.57;;;7.80;1.00;;;;;;4992144;28;20598;-53
2022/12/27 00:22:43;;;;;;;3.30;1.17;;;8.30;1.00;;;;;;4986029;28;20217;-51
2022/12/27 00:25:09;;;;;;;4.67;1.50;;;7.70;1.00;;;;;;4984781;28;20191;-54
2022/12/27 00:27:36;;;;;;;4.10;1.53;;;7.80;1.00;;;;;;4992116;28;20186;-55
2022/12/27 00:30:01;;;;;;;4.87;1.30;;;7.90;1.00;;;;;;4995673;28;20448;-53
2022/12/27 00:32:27;;;;;;;3.73;2.27;;;7.90;1.00;;;;;;4994671;28;20976;-52
2022/12/27 00:34:53;;;;;;;6.00;2.33;;;8.00;1.00;;;;;;4984195;28;20196;-53
2022/12/27 00:37:18;;;;;;;3.70;1.33;;;8.10;1.00;;;;;;4980058;28;20191;-55
2022/12/27 00:39:44;;;;;;;6.30;1.70;;;8.00;1.00;;;;;;4992065;28;20213;-53
2022/12/27 00:42:09;;;;;;;3.67;1.20;;;8.10;1.00;;;;;;4978808;28;20197;-55
2022/12/27 00:44:35;;;;;;;5.23;1.57;;;8.00;1.00;;;;;;4984057;28;20264;-55
2022/12/27 00:47:01;;;;;;;3.20;1.17;;;8.00;1.00;;;;;;4998686;28;20277;-54
2022/12/27 00:49:26;;;;;;;7.87;1.50;;;7.90;1.00;;;;;;4994761;28;20237;-52
2022/12/27 00:51:52;;;;;;;3.87;1.30;;;7.80;1.00;;;;;;4981860;28;20195;-54
2022/12/27 00:54:17;;;;;;;3.33;1.20;;;7.90;1.00;;;;;;4985241;28;20194;-52
2022/12/27 00:56:43;;;;;;;4.93;1.67;;;7.90;1.00;;;;;;4979283;28;20588;-53
2022/12/27 00:59:10;;;;;;;4.50;2.07;;;7.90;1.00;;;;;;4980814;28;20277;-51
2022/12/27 01:01:36;;;;;;;3.20;1.40;;;7.80;1.00;;;;;;4982514;28;20289;-53
2022/12/27 01:04:03;;;;;;;4.77;1.80;;;7.80;1.00;;;;;;4993666;28;21089;-54
2022/12/27 01:06:31;;;;;;;5.47;1.70;;;7.80;1.00;;;;;;4980299;28;20238;-54
2022/12/27 01:08:58;;;;;;;5.00;1.60;;;7.70;1.00;;;;;;4983079;28;20418;-54
2022/12/27 01:11:28;;;;;;;5.63;2.10;;;7.70;1.00;;;;;;4980861;28;20479;-54
2022/12/27 01:13:55;;;;;;;4.43;1.70;;;7.70;1.00;;;;;;4995667;28;20456;-54
2022/12/27 01:16:22;;;;;;;3.17;0.83;;;7.70;1.00;;;;;;4989029;28;20431;-53
2022/12/27 01:18:48;;;;;;;5.30;1.60;;;7.60;1.00;;;;;;5003687;28;20457;-52
2022/12/27 01:21:17;;;;;;;5.40;1.57;;;7.50;1.00;;;;;;4984992;28;20549;-54
2022/12/27 01:23:43;;;;;;;9.47;1.70;;;7.40;1.00;;;;;;4991454;28;20462;-53
2022/12/27 01:26:18;;;;;;;4.10;1.37;;;7.30;1.00;;;;;;4989760;28;20450;-54
2022/12/27 01:28:44;;;;;;;3.73;1.70;;;7.40;1.00;;;;;;4993266;28;20283;-52
2022/12/27 01:31:13;;;;;;;5.20;1.30;;;7.50;1.00;;;;;;5000442;28;20455;-52
2022/12/27 01:33:39;;;;;;;3.13;2.20;;;7.50;1.00;;;;;;4993277;28;20840;-52
2022/12/27 01:36:11;;;;;;;7.10;1.67;;;7.60;1.00;;;;;;4997916;28;20551;-52
2022/12/27 01:38:36;;;;;;;3.93;1.80;;;7.60;1.00;;;;;;4994269;28;20481;-53
2022/12/27 01:42:50;;;;;;;11.00;1.60;;;7.70;1.00;;;;;;4989642;28;20561;-54
2022/12/27 01:43:47;;;;;;;7.73;1.60;;;7.70;1.00;;;;;;4987166;28;20576;-53
2022/12/27 01:46:13;;;;;;;5.70;1.57;;;7.60;1.00;;;;;;4995023;28;20460;-53
2022/12/27 01:48:39;;;;;;;1.93;1.00;;;7.50;1.00;;;;;;4994773;28;20256;-50
2022/12/27 01:51:06;;;;;;;12.23;1.80;;;7.60;1.00;;;;;;4990629;28;20430;-54
2022/12/27 01:53:36;;;;;;;6.40;1.37;;;7.60;1.00;;;;;;4988674;28;20459;-53
2022/12/27 01:56:06;;;;;;;9.20;1.83;;;7.50;1.00;;;;;;4990502;28;20426;-54
2022/12/27 01:58:51;;;;;;;13.73;1.70;;;7.40;1.00;;;;;;4995380;28;20492;-53
2022/12/27 02:01:25;;;;;;;6.33;1.73;;;7.50;1.00;;;;;;4981909;28;21457;-52
2022/12/27 02:04:14;;;;;;;6.93;1.20;;;7.40;1.00;;;;;;4989187;28;20483;-55
2022/12/27 02:06:41;;;;;;;3.57;1.17;;;7.20;1.00;;;;;;4997427;28;20931;-53
2022/12/27 02:09:28;;;;;;;3.97;1.10;;;7.40;1.00;;;;;;4982646;28;20431;-52
2022/12/27 02:11:56;;;;;;;2.37;1.23;;;7.30;1.00;;;;;;4998117;28;20425;-53
2022/12/27 02:14:45;;;;;;;5.43;1.23;;;7.20;1.00;;;;;;4996228;28;20483;-54
2022/12/27 02:17:15;;;;;;;5.30;1.53;;;7.40;1.00;;;;;;4989358;28;20455;-54
2022/12/27 02:19:40;;;;;;;8.10;1.70;;;7.20;1.00;;;;;;4985360;28;20506;-53
2022/12/27 02:22:12;;;;;;;5.60;1.47;;;7.20;1.00;;;;;;4980140;28;20434;-55
2022/12/27 02:25:19;;;;;;;6.33;1.97;;;7.20;1.00;;;;;;4990184;28;20190;-54
2022/12/27 02:28:18;;;;;;;3.27;1.13;;;7.20;1.00;;;;;;4902515;28;20463;-55
2022/12/27 02:30:48;;;;;;;8.43;1.60;;;7.10;1.00;;;;;;4986898;28;20516;-53
2022/12/27 02:33:21;;;;;;;5.97;1.60;;;7.00;1.00;;;;;;4994857;28;20463;-53
2022/12/27 02:35:54;;;;;;;6.50;1.20;;;7.00;1.00;;;;;;4992857;28;20431;-52
2022/12/27 02:38:27;;;;;;;4.60;1.10;;;7.00;1.00;;;;;;4991284;28;20448;-52
2022/12/27 02:53:04;;;;;;;7.57;1.63;;;7.20;1.00;;;;;;4979623;28;21067;-52
2022/12/27 02:59:10;;;;;;;5.80;2.57;;;7.10;1.00;;;;;;4988875;28;20935;-53
2022/12/27 03:05:05;;;;;;;6.40;2.30;;;6.90;1.00;;;;;;4990048;28;20475;-53
2022/12/27 03:07:35;;;;;;;5.40;2.03;;;6.80;1.00;;;;;;4987437;28;20798;-53
2022/12/27 03:16:09;;;;;;;7.80;1.60;;;6.70;1.00;;;;;;4995081;28;20506;-51
2022/12/27 03:18:56;;;;;;;3.17;1.93;;;6.60;1.00;;;;;;4983791;28;20425;-55
2022/12/27 03:27:16;;;;;;;4.93;1.77;;;6.50;1.00;;;;;;4984700;28;20436;-51
2022/12/27 03:35:20;;;;;;;4.03;1.70;;;6.60;1.00;;;;;;4985494;28;20448;-54
2022/12/27 03:38:03;;;;;;;7.47;2.17;;;6.50;1.00;;;;;;4985842;28;20633;-52
2022/12/27 03:43:09;;;;;;;5.10;2.20;;;6.60;1.00;;;;;;4976627;28;20475;-52
2022/12/27 03:43:31;;;;;;;2.50;1.63;;;6.50;1.00;;;;;;4990778;28;20503;-54
2022/12/27 03:46:34;;;;;;;4.70;1.60;;;6.60;1.00;;;;;;5002550;28;20526;-50
2022/12/27 03:49:09;;;;;;;5.63;1.57;;;6.50;1.00;;;;;;4993752;28;20480;-52
2022/12/27 03:51:40;;;;;;;3.73;1.90;;;6.40;1.00;;;;;;4997192;28;20990;-54
2022/12/27 03:54:25;;;;;;;4.43;1.70;;;6.30;1.00;;;;;;4987416;28;20426;-53
2022/12/27 03:56:56;;;;;;;4.23;1.60;;;6.30;1.00;;;;;;4991601;28;20430;-53
2022/12/27 03:59:23;;;;;;;3.47;1.77;;;6.40;1.00;;;;;;4986445;28;20466;-51
2022/12/27 04:01:48;;;;;;;3.30;1.60;;;6.30;1.00;;;;;;4994810;28;20487;-52
2022/12/27 04:04:14;;;;;;;5.10;1.90;;;6.30;1.00;;;;;;4991834;28;20507;-50
2022/12/27 04:06:39;;;;;;;6.87;2.13;;;6.30;1.00;;;;;;4992331;28;20190;-52
2022/12/27 04:36:25;;;;;;;6.40;2.07;;;6.20;1.00;;;;;;4979151;28;20505;-54
2022/12/27 04:38:51;;;;;;;5.90;2.07;;;6.10;1.00;;;;;;4983939;28;20448;-52
2022/12/27 04:55:23;;;;;;;2.57;1.97;;;6.00;1.00;;;;;;4981207;28;20467;-53
2022/12/27 04:57:49;;;;;;;2.30;1.70;;;6.00;1.00;;;;;;4979859;28;20460;-53
2022/12/27 05:03:03;;;;;;;1.63;1.53;;;5.80;1.00;;;;;;4980763;28;20977;-54
2022/12/27 05:05:28;;;;;;;9.50;1.57;;;5.80;1.00;;;;;;4994724;28;20566;-54
2022/12/27 05:16:09;;;;;;;6.53;1.27;;;6.10;1.00;;;;;;4992539;28;20507;-54
2022/12/27 05:18:35;;;;;;;2.30;1.30;;;6.30;1.00;;;;;;4992910;28;20841;-54
2022/12/27 05:21:02;;;;;;;1.73;1.63;;;6.30;1.00;;;;;;4992377;28;20220;-52
2022/12/27 05:26:18;;;;;;;1.37;1.27;;;6.20;1.00;;;;;;4998667;28;20846;-52
2022/12/27 05:28:44;;;;;;;2.70;1.40;;;6.30;1.00;;;;;;4999688;28;21000;-52
2022/12/27 05:31:10;;;;;;;4.37;1.97;;;6.20;1.00;;;;;;4991596;28;20515;-53
2022/12/27 05:33:35;;;;;;;2.93;1.83;;;6.20;1.00;;;;;;4984687;28;20551;-53
2022/12/27 05:36:01;;;;;;;2.57;1.27;;;6.30;1.00;;;;;;4999989;28;20193;-53
2022/12/27 05:38:26;;;;;;;2.30;1.30;;;6.30;1.00;;;;;;4991579;28;20669;-52
2022/12/27 05:40:57;;;;;;;2.40;1.50;;;6.20;1.00;;;;;;4994442;28;20215;-52
2022/12/27 05:43:23;;;;;;;6.83;1.93;;;6.20;1.00;;;;;;4996867;28;20215;-53
2022/12/27 05:45:49;;;;;;;2.23;1.30;;;6.30;1.00;;;;;;4998007;28;20448;-53
2022/12/27 05:48:14;;;;;;;3.40;1.50;;;6.40;1.00;;;;;;5003174;28;20185;-52
2022/12/27 05:50:40;;;;;;;1.77;1.07;;;6.40;1.00;;;;;;5006394;28;20220;-53
2022/12/27 05:53:05;;;;;;;1.50;1.40;;;6.40;1.00;;;;;;4984674;28;20197;-51
2022/12/27 05:55:31;;;;;;;1.43;1.20;;;6.40;1.00;;;;;;4990572;28;20186;-51
2022/12/27 05:57:57;;;;;;;2.67;1.50;;;6.30;1.00;;;;;;4989582;28;20201;-55
2022/12/27 06:00:22;;;;;;;3.93;2.00;;;6.30;1.00;;;;;;4990348;28;20724;-55
2022/12/27 06:02:48;;;;;;;3.07;1.50;;;6.40;1.00;;;;;;4990424;28;20204;-55
2022/12/27 06:05:13;;;;;;;1.20;1.10;;;6.40;1.00;;;;;;4996225;28;20184;-53
2022/12/27 06:07:39;;;;;;;2.30;1.40;;;6.60;1.00;;;;;;4993096;28;20194;-53
2022/12/27 06:10:06;;;;;;;2.30;1.50;;;6.60;1.00;;;;;;4997000;28;20630;-53
2022/12/27 06:12:32;;;;;;;1.33;1.20;;;6.50;1.00;;;;;;4989527;28;20228;-55
2022/12/27 06:15:01;;;;;;;2.20;1.30;;;6.50;1.00;;;;;;4991111;28;20487;-55
2022/12/27 06:17:26;;;;;;;4.50;1.43;;;6.50;1.00;;;;;;4998168;28;20211;-57
2022/12/27 06:19:52;;;;;;;7.70;1.73;;;6.60;1.00;;;;;;4994985;28;20423;-53
2022/12/27 06:22:18;;;;;;;4.20;1.53;;;6.60;1.00;;;;;;4988941;28;20193;-53
2022/12/27 06:24:43;;;;;;;3.03;1.17;;;6.70;1.00;;;;;;4996312;28;20216;-51
2022/12/27 06:27:09;;;;;;;2.10;1.10;;;6.60;1.00;;;;;;4992388;28;20675;-53
2022/12/27 06:29:35;;;;;;;1.97;1.37;;;6.60;1.00;;;;;;4997758;28;20181;-52
2022/12/27 06:32:00;;;;;;;3.30;1.00;;;6.60;1.00;;;;;;4992152;28;20721;-53
2022/12/27 06:34:26;;;;;;;2.40;1.20;;;6.50;1.00;;;;;;4991242;28;20195;-52
2022/12/27 06:36:51;;;;;;;3.07;1.30;;;6.40;1.00;;;;;;4998724;28;20201;-52
2022/12/27 06:39:17;;;;;;;1.00;0.90;;;6.20;1.00;;;;;;4994223;28;20547;-54
2022/12/27 06:41:43;;;;;;;4.70;1.30;;;6.10;1.00;;;;;;4995964;28;20201;-54
2022/12/27 06:44:09;;;;;;;4.57;1.67;;;6.10;1.00;;;;;;4995552;28;20473;-52
2022/12/27 06:46:35;;;;;;;4.07;1.43;;;6.20;1.00;;;;;;4991405;28;20197;-52
2022/12/27 06:49:01;;;;;;;8.77;2.33;;;6.10;1.00;;;;;;4998595;28;20228;-53
2022/12/27 06:51:26;;;;;;;1.63;1.03;;;6.10;1.00;;;;;;4990918;28;20460;-55
2022/12/27 06:53:52;;;;;;;1.73;1.20;;;5.90;1.00;;;;;;4989310;28;20493;-55
2022/12/27 06:56:20;;;;;;;4.93;1.00;;;5.90;1.00;;;;;;4999491;28;20701;-52
2022/12/27 06:58:47;;;;;;;3.13;1.30;;;5.80;1.00;;;;;;4993149;28;20200;-55
2022/12/27 07:01:23;;;;;;;3.70;1.30;;;5.80;1.00;;;;;;4988532;28;20543;-56
2022/12/27 07:03:54;;;;;;;3.50;1.17;;;5.80;1.00;;;;;;4989031;28;20968;-56
2022/12/27 07:06:21;;;;;;;1.77;1.17;;;6.00;1.00;;;;;;4986407;28;20464;-56
2022/12/27 07:08:47;;;;;;;3.50;1.47;;;5.90;1.00;;;;;;4985442;28;20434;-56
2022/12/27 07:11:14;;;;;;;1.80;1.07;;;6.00;1.00;;;;;;4983434;28;20954;-57
2022/12/27 07:13:42;;;;;;;5.37;1.63;;;5.90;1.00;;;;;;4989165;28;20450;-55
2022/12/27 07:16:10;;;;;;;2.30;1.13;;;6.00;1.00;;;;;;4986699;28;20434;-57
2022/12/27 07:18:36;;;;;;;4.00;1.40;;;6.00;1.00;;;;;;4989024;28;20471;-57
2022/12/27 07:21:06;;;;;;;2.50;1.00;;;6.00;1.00;;;;;;4984972;28;20459;-56
2022/12/27 07:23:32;;;;;;;3.10;1.27;;;6.00;1.00;;;;;;4985060;28;20471;-57
2022/12/27 07:26:18;;;;;;;5.00;1.37;;;6.00;1.00;;;;;;4983159;28;20450;-56
2022/12/27 07:28:44;;;;;;;4.00;1.33;;;5.90;1.00;;;;;;4982807;28;20457;-56
2022/12/27 07:31:16;;;;;;;3.20;1.33;;;5.90;1.00;;;;;;4988400;28;20962;-57
2022/12/27 07:33:42;;;;;;;2.50;1.40;;;6.00;1.00;;;;;;4989821;28;20883;-56
2022/12/27 07:36:12;;;;;;;4.50;1.50;;;6.00;1.00;;;;;;4986133;28;20710;-56
2022/12/27 07:38:38;;;;;;;2.20;1.40;;;6.10;1.00;;;;;;4983749;28;20423;-56
2022/12/27 07:41:04;;;;;;;1.47;1.07;;;6.10;1.00;;;;;;4986883;28;20460;-57
2022/12/27 07:43:34;;;;;;;1.37;1.27;;;6.00;1.00;;;;;;4987404;28;20472;-57
2022/12/27 07:46:09;;;;;;;3.03;1.83;;;6.00;1.00;;;;;;4988097;28;20247;-56
2022/12/27 07:48:35;;;;;;;2.03;1.03;;;6.10;1.00;;;;;;4986324;28;20468;-57
2022/12/27 07:51:02;;;;;;;2.60;1.30;;;5.90;99.90;;;;;;4989617;28;20470;-56
2022/12/27 07:53:28;;;;;;;3.17;1.43;;;5.90;99.90;;;;;;4989757;28;20441;-57
2022/12/27 07:55:54;;;;;;;2.20;1.40;;;6.10;1.00;;;;;;4984390;28;20452;-56
2022/12/27 07:58:20;;;;;;;3.30;1.20;;;6.30;1.00;;;;;;4987866;28;20452;-56
2022/12/27 08:00:48;;;;;;;3.30;1.40;;;6.20;1.00;;;;;;4988939;28;20423;-56
2022/12/27 08:03:14;;;;;;;2.30;1.57;;;6.10;1.00;;;;;;4978054;28;20455;-56
2022/12/27 08:05:48;;;;;;;4.00;1.67;;;6.30;1.00;;;;;;4959607;28;21003;-58
2022/12/27 08:08:16;;;;;;;4.53;1.20;;;6.30;83.80;;;;;;4986994;28;20196;-57
2022/12/27 08:10:43;;;;;;;6.93;2.13;;;6.40;1.00;;;;;;4983807;28;20463;-55
2022/12/27 08:13:08;;;;;;;5.77;1.83;;;6.40;1.00;;;;;;4988130;28;20980;-56
2022/12/27 08:15:36;;;;;;;3.03;1.97;;;6.50;1.00;;;;;;4987192;28;20455;-58
2022/12/27 08:18:02;;;;;;;4.30;2.00;;;6.60;1.00;;;;;;4986527;28;20208;-56
2022/12/27 08:20:28;;;;;;;3.03;2.00;;;6.60;1.00;;;;;;4987271;28;20461;-57
2022/12/27 08:22:53;;;;;;;6.23;1.80;;;6.70;1.00;;;;;;4987111;28;20984;-56
2022/12/27 08:25:19;;;;;;;3.63;1.30;;;6.80;1.00;;;;;;4985766;28;20460;-57
2022/12/27 08:27:44;;;;;;;3.03;1.60;;;6.70;1.00;;;;;;4986966;28;20210;-57
2022/12/27 08:30:11;;;;;;;3.50;1.10;;;6.80;1.00;;;;;;4989240;28;20232;-57
2022/12/27 08:32:36;;;;;;;2.60;1.00;;;6.80;1.00;;;;;;4991262;28;20245;-56
2022/12/27 08:35:02;;;;;;;2.60;1.43;;;6.90;1.00;;;;;;4988537;28;20452;-57
2022/12/27 08:37:27;;;;;;;3.30;1.73;;;6.90;1.00;;;;;;4991788;28;20283;-56
2022/12/27 08:39:53;;;;;;;4.03;1.40;;;6.80;1.00;;;;;;4988434;28;20193;-56
2022/12/27 08:42:18;;;;;;;4.80;1.60;;;6.80;1.00;;;;;;4988261;28;20192;-56
2022/12/27 08:44:44;;;;;;;2.60;1.43;;;7.00;1.00;;;;;;4992578;28;20214;-56
2022/12/27 08:47:10;;;;;;;2.10;1.40;;;7.00;1.00;;;;;;4990230;28;20292;-56
2022/12/27 08:49:35;;;;;;;2.70;1.33;;;7.00;1.00;;;;;;4992602;28;20252;-55
2022/12/27 08:52:01;;;;;;;7.90;4.10;;;7.00;1.00;;;;;;4990122;28;20193;-56
2022/12/27 08:54:27;;;;;;;6.53;2.40;;;7.00;1.00;;;;;;4991396;28;20189;-57
2022/12/27 08:56:52;;;;;;;3.47;1.70;;;7.00;1.00;;;;;;4993055;28;20186;-56
2022/12/27 08:59:18;;;;;;;5.37;2.10;;;6.90;1.00;;;;;;4993049;28;20659;-56
2022/12/27 09:01:43;;;;;;;2.33;1.93;;;7.10;1.00;;;;;;4975262;28;20202;-56
2022/12/27 09:04:09;;;;;;;8.73;3.57;;;7.10;1.00;;;;;;4973173;28;20210;-62
2022/12/27 09:06:34;;;;;;;3.13;1.43;;;7.20;1.00;;;;;;4993685;28;20193;-55
2022/12/27 09:09:00;;;;;;;4.13;1.50;;;7.10;1.00;;;;;;4990986;28;20208;-55
2022/12/27 09:11:29;;;;;;;2.63;1.97;;;7.00;1.00;;;;;;4994614;28;20268;-55
2022/12/27 09:13:58;;;;;;;2.60;1.60;;;7.00;1.00;;;;;;4985734;28;20597;-55
2022/12/27 09:16:28;;;;;;;2.67;1.50;;;6.90;1.00;;;;;;4991151;28;20449;-56
2022/12/27 09:18:56;;;;;;;5.47;1.60;;;6.90;1.00;;;;;;4974742;28;20468;-55
2022/12/27 09:21:23;;;;;;;4.87;1.67;;;6.80;1.00;;;;;;4990025;28;20947;-55
2022/12/27 09:23:49;;;;;;;5.23;1.73;;;7.00;1.00;;;;;;4987893;28;20464;-55
2022/12/27 09:26:27;;;;;;;3.60;1.67;;;7.20;1.00;;;;;;4987778;28;20475;-55
2022/12/27 09:28:53;;;;;;;3.63;2.03;;;7.20;15.40;;;;;;4992177;28;20467;-55
2022/12/27 09:31:20;;;;;;;3.50;1.80;;;7.30;1.00;;;;;;4989887;28;20452;-55
2022/12/27 09:33:46;;;;;;;3.70;1.40;;;7.50;1.00;;;;;;4987269;28;20457;-55
2022/12/27 09:36:17;;;;;;;5.03;1.37;;;7.40;1.00;;;;;;4991204;28;20456;-56
2022/12/27 09:38:44;;;;;;;3.43;1.50;;;7.70;1.00;;;;;;4989902;28;20449;-56
2022/12/27 09:41:16;;;;;;;5.03;1.57;;;8.00;1.00;;;;;;4990687;28;20965;-56
2022/12/27 09:44:21;;;;;;;2.93;1.37;;;8.10;1.00;;;;;;4992063;28;20476;-55
2022/12/27 09:46:50;;;;;;;3.77;1.47;;;8.10;1.00;;;;;;4993469;28;20424;-56
2022/12/27 09:49:25;;;;;;;3.00;1.60;;;8.30;1.00;;;;;;5010898;28;20464;-56
2022/12/27 09:51:59;;;;;;;2.20;1.20;;;8.10;1.00;;;;;;4992655;28;20435;-56
2022/12/27 09:54:46;;;;;;;2.10;1.30;;;8.20;1.00;;;;;;4987300;28;20551;-57
2022/12/27 09:57:25;;;;;;;4.10;1.67;;;8.40;1.00;;;;;;4937553;28;20440;-55
2022/12/27 10:00:00;;;;;;;5.57;1.03;;;8.40;1.00;;;;;;4993602;28;20459;-55
2022/12/27 10:02:27;;;;;;;4.83;2.33;;;8.50;1.00;;;;;;4988410;28;20418;-57
2022/12/27 10:04:55;;;;;;;3.07;1.60;;;8.60;1.00;;;;;;4988840;28;20477;-55
2022/12/27 10:08:01;;;;;;;2.93;1.30;;;8.70;1.00;;;;;;4988229;28;20464;-56
2022/12/27 10:10:42;;;;;;;5.07;1.50;;;8.70;1.00;;;;;;4989420;28;20433;-57
2022/12/27 10:13:33;;;;;;;3.33;1.50;;;8.80;1.00;;;;;;4991397;28;20442;-56
2022/12/27 10:16:28;;;;;;;4.93;1.57;;;8.90;1.00;;;;;;4990289;28;20446;-55
2022/12/27 10:19:15;;;;;;;8.33;1.60;;;8.90;1.00;;;;;;4991241;28;20415;-56
2022/12/27 10:22:00;;;;;;;3.20;1.23;;;8.80;1.00;;;;;;4991492;28;20432;-55
2022/12/27 10:24:51;;;;;;;3.83;1.33;;;8.90;1.00;;;;;;4990136;28;21087;-55
2022/12/27 10:27:23;;;;;;;3.23;1.33;;;8.50;1.00;;;;;;4990964;28;20448;-56
2022/12/27 10:29:56;;;;;;;2.30;1.80;;;8.40;1.00;;;;;;4990796;28;20413;-55
2022/12/27 10:32:22;;;;;;;3.37;1.27;;;8.40;1.00;;;;;;4990729;28;20438;-56
2022/12/27 10:34:55;;;;;;;5.37;1.70;;;8.20;1.00;;;;;;4990997;28;20447;-56
2022/12/27 10:37:22;;;;;;;2.27;1.17;;;8.20;1.00;;;;;;4990624;28;20511;-55
2022/12/27 10:39:47;;;;;;;4.70;1.80;;;8.10;1.00;;;;;;4989539;28;20454;-56
2022/12/27 10:42:33;;;;;;;3.60;1.60;;;8.20;1.00;;;;;;4990593;28;20451;-55
2022/12/27 10:45:28;;;;;;;2.73;1.50;;;8.10;1.00;;;;;;4990598;28;20185;-55
2022/12/27 10:48:11;;;;;;;1.87;1.00;;;8.20;1.00;;;;;;4990409;28;20442;-56
2022/12/27 10:50:37;;;;;;;3.30;1.40;;;8.20;1.00;;;;;;4990668;28;20946;-58
2022/12/27 10:53:02;;;;;;;3.07;1.50;;;8.30;1.00;;;;;;4990035;28;20452;-57
2022/12/27 10:55:38;;;;;;;3.10;1.13;;;8.30;1.00;;;;;;4989885;28;20448;-56
2022/12/27 10:58:40;;;;;;;3.77;1.27;;;8.40;1.00;;;;;;4990393;28;20205;-57
2022/12/27 11:01:18;;;;;;;1.83;1.30;;;8.40;1.00;;;;;;4891677;29;20837;-56
2022/12/27 11:03:43;;;;;;;5.73;1.90;;;8.50;1.00;;;;;;4975725;28;20449;-56
2022/12/27 11:06:29;;;;;;;2.50;1.60;;;8.50;1.00;;;;;;4989180;28;20443;-56
2022/12/27 11:08:55;;;;;;;4.20;1.63;;;8.50;1.00;;;;;;4989762;28;20274;-56
2022/12/27 11:11:23;;;;;;;2.57;1.43;;;8.70;1.00;;;;;;4988383;28;20519;-58
2022/12/27 11:13:50;;;;;;;2.50;1.60;;;8.90;1.00;;;;;;4990124;28;20186;-55
2022/12/27 11:16:24;;;;;;;1.70;1.43;;;8.80;1.00;;;;;;4990391;28;20444;-56
2022/12/27 11:18:52;;;;;;;3.53;1.20;;;8.80;1.00;;;;;;4989934;28;20414;-55
2022/12/27 11:21:19;;;;;;;2.37;1.50;;;8.80;1.00;;;;;;4990457;28;20463;-55
2022/12/27 11:23:54;;;;;;;2.73;1.93;;;8.70;1.00;;;;;;4990034;28;20502;-56
2022/12/27 11:26:23;;;;;;;2.80;1.50;;;8.80;1.00;;;;;;4985502;28;20935;-56
2022/12/27 11:28:55;;;;;;;3.33;1.60;;;8.70;1.00;;;;;;4972635;28;20436;-55
2022/12/27 11:31:40;;;;;;;2.40;1.17;;;8.60;1.00;;;;;;4989929;28;20807;-55
2022/12/27 11:34:16;;;;;;;1.63;1.27;;;8.70;1.00;;;;;;4989622;28;20975;-56
2022/12/27 11:36:46;;;;;;;2.93;1.20;;;9.00;1.00;;;;;;4989832;28;20437;-56
2022/12/27 11:39:40;;;;;;;1.33;1.23;;;9.20;1.00;;;;;;4988370;28;20817;-56
2022/12/27 11:42:20;;;;;;;1.10;1.00;;;9.20;1.00;;;;;;5006635;28;20861;-56
2022/12/27 11:45:05;;;;;;;4.10;1.73;;;8.90;1.00;;;;;;5009167;28;20934;-55
2022/12/27 11:47:50;;;;;;;3.13;1.20;;;8.90;1.00;;;;;;5009185;28;20940;-55
2022/12/27 11:50:35;;;;;;;3.87;1.23;;;8.90;1.00;;;;;;5000778;28;20444;-56
2022/12/27 11:53:06;;;;;;;1.67;1.23;;;9.00;1.00;;;;;;4989608;28;20423;-55
2022/12/27 11:55:40;;;;;;;2.30;1.50;;;8.80;1.00;;;;;;4987650;28;20898;-55
2022/12/27 11:58:30;;;;;;;5.20;1.53;;;8.70;1.00;;;;;;4989743;28;20496;-55
2022/12/27 12:01:08;;;;;;;2.07;1.30;;;8.60;1.00;;;;;;4989464;28;20705;-54
2022/12/27 12:03:57;;;;;;;4.17;1.00;;;8.50;1.00;;;;;;4990321;28;20543;-56
2022/12/27 12:06:30;;;;;;;2.40;1.50;;;8.50;1.00;;;;;;4991794;28;20788;-55
2022/12/27 12:09:17;;;;;;;3.50;1.67;;;8.60;1.00;;;;;;4992768;28;20441;-56
2022/12/27 12:12:12;;;;;;;3.43;1.73;;;8.70;1.00;;;;;;4993526;28;20412;-56
2022/12/27 12:15:10;;;;;;;3.40;1.33;;;8.70;1.00;;;;;;4951801;28;20452;-56
2022/12/27 12:17:53;;;;;;;3.80;1.43;;;8.60;1.00;;;;;;4993336;28;20440;-55
2022/12/27 12:20:35;;;;;;;2.70;1.70;;;8.70;1.00;;;;;;4993300;28;20459;-56
2022/12/27 12:23:11;;;;;;;5.17;1.50;;;8.70;1.00;;;;;;4989760;28;20554;-57
2022/12/27 12:26:09;;;;;;;1.50;1.03;;;8.60;1.00;;;;;;4988857;28;20981;-57
2022/12/27 12:28:34;;;;;;;1.70;1.30;;;8.40;1.00;;;;;;4992835;28;20422;-56
2022/12/27 12:31:13;;;;;;;4.40;1.33;;;8.40;1.00;;;;;;5006738;28;20446;-56
2022/12/27 12:34:06;;;;;;;2.67;1.40;;;8.40;99.90;;;;;;5012734;28;20200;-56
2022/12/27 12:36:42;;;;;;;2.27;1.23;;;8.60;1.00;;;;;;4988067;28;20425;-55
2022/12/27 12:39:28;;;;;;;2.40;1.13;;;8.80;1.00;;;;;;4992223;28;20441;-56
2022/12/27 12:42:05;;;;;;;1.90;1.47;;;8.60;1.00;;;;;;4988934;28;20501;-56
2022/12/27 12:44:42;;;;;;;2.60;1.33;;;8.50;1.00;;;;;;4993949;28;20454;-56
2022/12/27 12:47:36;;;;;;;2.00;1.43;;;8.70;1.00;;;;;;4990287;28;20527;-55
2022/12/27 12:50:25;;;;;;;2.73;1.50;;;8.70;1.00;;;;;;4992534;28;20489;-55
2022/12/27 12:52:59;;;;;;;4.53;2.30;;;8.70;39.40;;;;;;4992249;28;20431;-56
2022/12/27 12:55:43;;;;;;;3.60;1.17;;;8.90;1.00;;;;;;4986948;28;20808;-56
2022/12/27 12:58:52;;;;;;;2.43;1.50;;;8.90;1.00;;;;;;4991456;28;20435;-55
2022/12/27 13:01:34;;;;;;;4.73;1.57;;;8.80;1.00;;;;;;4990594;28;20917;-55
2022/12/27 13:04:37;;;;;;;3.33;1.47;;;8.80;1.00;;;;;;4990000;28;20435;-56
2022/12/27 13:07:21;;;;;;;1.37;1.03;;;8.70;1.00;;;;;;4991911;28;20494;-55
2022/12/27 13:09:55;;;;;;;3.73;1.60;;;8.50;1.00;;;;;;4991446;28;20440;-55
2022/12/27 13:12:41;;;;;;;2.20;1.10;;;8.50;99.90;;;;;;4986268;28;20420;-55
2022/12/27 13:15:38;;;;;;;2.10;1.27;;;8.50;99.90;;;;;;4990548;28;20450;-56
2022/12/27 13:18:25;;;;;;;1.97;1.40;;;8.40;99.90;;;;;;4989384;28;20939;-57
2022/12/27 13:21:12;;;;;;;1.70;1.23;;;8.40;99.90;;;;;;4990393;28;20445;-56
2022/12/27 13:24:10;;;;;;;5.80;1.23;;;8.40;99.90;;;;;;4989043;28;20436;-57
2022/12/27 13:26:51;;;;;;;3.17;1.53;;;8.60;99.90;;;;;;4988254;28;20528;-57
2022/12/27 13:29:45;;;;;;;2.10;1.40;;;8.70;99.90;;;;;;4990975;28;20699;-56
2022/12/27 13:32:16;;;;;;;3.37;1.40;;;8.70;1.00;;;;;;4988150;28;20553;-56
2022/12/27 13:35:11;;;;;;;3.00;1.50;;;8.60;1.00;;;;;;4991531;28;20441;-56
2022/12/27 13:37:53;;;;;;;2.20;1.50;;;8.60;1.00;;;;;;4974407;28;20504;-56
2022/12/27 13:40:43;;;;;;;2.83;2.00;;;8.50;99.90;;;;;;4986947;28;20480;-56
2022/12/27 13:43:27;;;;;;;2.10;1.20;;;8.60;99.90;;;;;;4990848;28;20444;-55
2022/12/27 13:46:07;;;;;;;1.20;1.10;;;8.80;1.00;;;;;;4986933;28;20444;-55
2022/12/27 13:48:44;;;;;;;4.03;1.70;;;8.80;99.90;;;;;;4991768;28;20472;-55
2022/12/27 13:51:34;;;;;;;3.17;1.90;;;8.70;1.00;;;;;;4991205;28;20490;-55
2022/12/27 13:54:21;;;;;;;2.40;1.27;;;8.70;1.00;;;;;;4987108;28;20453;-55
2022/12/27 13:57:17;;;;;;;1.70;1.60;;;8.60;1.00;;;;;;4988924;28;20465;-56
2022/12/27 14:00:03;;;;;;;2.27;1.30;;;8.60;99.90;;;;;;4987223;28;20456;-56
2022/12/27 14:02:31;;;;;;;3.80;1.63;;;8.70;99.90;;;;;;4991660;28;20429;-56
2022/12/27 14:04:59;;;;;;;3.80;1.70;;;8.70;99.90;;;;;;4988879;28;20971;-55
2022/12/27 14:07:37;;;;;;;2.00;1.30;;;8.70;99.90;;;;;;4985099;28;20478;-55
2022/12/27 14:10:12;;;;;;;3.60;1.50;;;8.60;99.90;;;;;;4989672;28;20512;-56
2022/12/27 14:12:56;;;;;;;4.53;1.43;;;8.60;99.90;;;;;;4986147;28;20810;-55
2022/12/27 14:15:41;;;;;;;2.47;1.47;;;8.70;99.90;;;;;;4987939;28;20464;-55
2022/12/27 14:18:37;;;;;;;6.10;2.00;;;8.70;99.90;;;;;;4985239;28;20544;-55
2022/12/27 14:21:24;;;;;;;3.97;1.30;;;8.70;99.90;;;;;;4989777;28;20430;-55
2022/12/27 14:24:03;;;;;;;1.80;1.30;;;8.80;99.90;;;;;;4989473;28;20522;-55
2022/12/27 14:27:05;;;;;;;3.67;1.77;;;8.70;99.90;;;;;;4988155;28;20524;-56
2022/12/27 14:30:02;;;;;;;1.40;1.30;;;8.80;99.90;;;;;;4987258;28;21082;-56
2022/12/27 14:32:37;;;;;;;3.50;2.07;;;8.70;12.40;;;;;;4962048;28;20450;-56
2022/12/27 14:35:40;;;;;;;4.40;1.83;;;8.80;99.90;;;;;;4989289;28;20446;-56
2022/12/27 14:38:22;;;;;;;4.90;2.63;;;8.80;99.90;;;;;;4990346;28;20459;-56
2022/12/27 14:41:27;;;;;;;1.83;1.17;;;8.70;99.90;;;;;;4987105;28;20456;-57
2022/12/27 14:43:53;;;;;;;5.10;1.80;;;8.70;99.90;;;;;;4990478;28;20471;-57
2022/12/27 14:46:39;;;;;;;6.20;1.70;;;8.70;99.90;;;;;;4987409;28;20561;-56
2022/12/27 14:49:24;;;;;;;3.97;2.27;;;8.60;73.20;;;;;;5082316;27;20536;-57
2022/12/27 14:52:27;;;;;;;6.60;3.17;;;8.60;99.90;;;;;;5068136;28;20478;-56
2022/12/27 14:55:08;;;;;;;6.00;2.00;;;8.60;99.90;;;;;;5049797;28;20521;-57
2022/12/27 14:58:11;;;;;;;2.50;1.70;;;8.60;99.90;;;;;;5064074;28;20835;-56
2022/12/27 15:01:04;;;;;;;2.70;1.97;;;8.70;99.90;;;;;;5057091;28;20474;-56
2022/12/27 15:03:46;;;;;;;5.70;1.80;;;8.70;1.00;;;;;;5064910;28;20452;-56
2022/12/27 15:06:41;;;;;;;5.23;1.90;;;8.60;1.00;;;;;;5066176;28;20942;-56
2022/12/27 15:09:29;;;;;;;4.63;2.50;;;8.50;1.00;;;;;;5063600;28;20549;-56
2022/12/27 15:12:06;;;;;;;3.50;1.67;;;8.50;1.00;;;;;;5066422;28;21055;-56